sensor_id;sensor_type;location;lat;lon;timestamp;pressure;altitude;pressure_sealevel;temperature;humidity
9905;BME280;4991;43.566;27.820;2023-02-14T00:01:19;100272.38;;;0.20;100.00
9905;BME280;4991;43.566;27.820;2023-02-14T00:03:45;100275.66;;;0.22;100.00
9905;BME280;4991;43.566;27.820;2023-02-14T00:06:12;100275.28;;;0.18;100.00
9905;BME280;4991;43.566;27.820;2023-02-14T00:08:39;100270.69;;;0.12;100.00
9905;BME280;4991;43.566;27.820;2023-02-14T00:11:05;100272.34;;;0.07;100.00
9905;BME280;4991;43.566;27.820;2023-02-14T00:13:32;100265.75;;;0.09;100.00
9905;BME280;4991;43.566;27.820;2023-02-14T00:15:58;100261.84;;;0.12;100.00
9905;BME280;4991;43.566;27.820;2023-02-14T00:18:24;100255.88;;;0.16;100.00
9905;BME280;4991;43.566;27.820;2023-02-14T00:21:12;100250.72;;;0.15;100.00
9905;BME280;4991;43.566;27.820;2023-02-14T00:23:38;100252.38;;;0.16;100.00
9905;BME280;4991;43.566;27.820;2023-02-14T00:26:04;100248.84;;;0.15;100.00
9905;BME280;4991;43.566;27.820;2023-02-14T00:28:29;100241.66;;;0.09;100.00
9905;BME280;4991;43.566;27.820;2023-02-14T00:31:00;100231.13;;;0.08;100.00
9905;BME280;4991;43.566;27.820;2023-02-14T00:33:26;100228.47;;;0.14;100.00
9905;BME280;4991;43.566;27.820;2023-02-14T00:35:51;100213.00;;;0.10;100.00
9905;BME280;4991;43.566;27.820;2023-02-14T00:38:17;100226.38;;;0.03;100.00
9905;BME280;4991;43.566;27.820;2023-02-14T00:40:43;100219.16;;;0.03;100.00
9905;BME280;4991;43.566;27.820;2023-02-14T00:43:08;100215.25;;;-0.01;100.00
9905;BME280;4991;43.566;27.820;2023-02-14T00:45:34;100208.66;;;0.02;100.00
9905;BME280;4991;43.566;27.820;2023-02-14T00:47:59;100191.16;;;-0.01;100.00
9905;BME280;4991;43.566;27.820;2023-02-14T00:50:25;100192.59;;;0.02;100.00
9905;BME280;4991;43.566;27.820;2023-02-14T00:52:51;100180.44;;;0.06;100.00
9905;BME280;4991;43.566;27.820;2023-02-14T00:55:16;100173.25;;;0.07;100.00
9905;BME280;4991;43.566;27.820;2023-02-14T00:57:42;100175.31;;;0.05;100.00
9905;BME280;4991;43.566;27.820;2023-02-14T01:00:08;100179.81;;;0.04;100.00
9905;BME280;4991;43.566;27.820;2023-02-14T01:02:34;100174.25;;;-0.01;100.00
9905;BME280;4991;43.566;27.820;2023-02-14T01:05:00;100160.03;;;0.05;100.00
9905;BME280;4991;43.566;27.820;2023-02-14T01:07:25;100162.72;;;0.05;100.00
9905;BME280;4991;43.566;27.820;2023-02-14T01:09:51;100165.59;;;0.03;100.00
9905;BME280;4991;43.566;27.820;2023-02-14T01:12:17;100161.72;;;0.06;100.00
9905;BME280;4991;43.566;27.820;2023-02-14T01:14:42;100154.31;;;0.15;100.00
9905;BME280;4991;43.566;27.820;2023-02-14T01:17:08;100149.16;;;0.20;100.00
9905;BME280;4991;43.566;27.820;2023-02-14T01:19:33;100150.59;;;0.22;100.00
9905;BME280;4991;43.566;27.820;2023-02-14T01:22:01;100157.19;;;0.13;100.00
9905;BME280;4991;43.566;27.820;2023-02-14T01:24:27;100156.78;;;0.10;100.00
9905;BME280;4991;43.566;27.820;2023-02-14T01:26:52;100153.88;;;0.11;100.00
9905;BME280;4991;43.566;27.820;2023-02-14T01:29:18;100161.72;;;0.06;100.00
9905;BME280;4991;43.566;27.820;2023-02-14T01:31:43;100160.25;;;0.03;100.00
9905;BME280;4991;43.566;27.820;2023-02-14T01:34:09;100148.09;;;0.01;100.00
9905;BME280;4991;43.566;27.820;2023-02-14T01:36:37;100144.38;;;0.02;100.00
9905;BME280;4991;43.566;27.820;2023-02-14T01:39:14;100141.47;;;-0.03;100.00
9905;BME280;4991;43.566;27.820;2023-02-14T01:41:41;100142.75;;;0.01;100.00
9905;BME280;4991;43.566;27.820;2023-02-14T01:46:53;100139.03;;;0.09;100.00
9905;BME280;4991;43.566;27.820;2023-02-14T01:49:32;100127.31;;;0.10;100.00
9905;BME280;4991;43.566;27.820;2023-02-14T01:52:05;100115.75;;;0.03;100.00
9905;BME280;4991;43.566;27.820;2023-02-14T01:54:34;100117.81;;;0.00;100.00
9905;BME280;4991;43.566;27.820;2023-02-14T01:57:06;100107.50;;;-0.09;100.00
9905;BME280;4991;43.566;27.820;2023-02-14T01:59:40;100104.81;;;-0.09;100.00
9905;BME280;4991;43.566;27.820;2023-02-14T02:02:08;100105.44;;;-0.14;100.00
9905;BME280;4991;43.566;27.820;2023-02-14T02:04:38;100103.16;;;-0.17;100.00
9905;BME280;4991;43.566;27.820;2023-02-14T02:07:08;100091.84;;;-0.19;100.00
9905;BME280;4991;43.566;27.820;2023-02-14T02:09:38;100082.97;;;-0.26;100.00
9905;BME280;4991;43.566;27.820;2023-02-14T02:12:06;100082.53;;;-0.36;100.00
9905;BME280;4991;43.566;27.820;2023-02-14T02:14:32;100089.53;;;-0.35;100.00
9905;BME280;4991;43.566;27.820;2023-02-14T02:20:34;100073.09;;;-0.32;100.00
9905;BME280;4991;43.566;27.820;2023-02-14T02:28:51;100073.47;;;-0.28;100.00
9905;BME280;4991;43.566;27.820;2023-02-14T02:31:53;100075.34;;;-0.22;100.00
9905;BME280;4991;43.566;27.820;2023-02-14T02:40:44;100094.53;;;-0.19;100.00
9905;BME280;4991;43.566;27.820;2023-02-14T02:51:38;100069.75;;;-0.40;100.00
9905;BME280;4991;43.566;27.820;2023-02-14T02:54:33;100066.47;;;-0.42;100.00
9905;BME280;4991;43.566;27.820;2023-02-14T02:57:04;100064.41;;;-0.40;100.00
9905;BME280;4991;43.566;27.820;2023-02-14T02:59:37;100060.28;;;-0.43;100.00
9905;BME280;4991;43.566;27.820;2023-02-14T03:04:32;100044.63;;;-0.46;100.00
9905;BME280;4991;43.566;27.820;2023-02-14T03:07:16;100042.16;;;-0.47;100.00
9905;BME280;4991;43.566;27.820;2023-02-14T03:10:19;100026.94;;;-0.47;100.00
9905;BME280;4991;43.566;27.820;2023-02-14T03:23:50;99990.06;;;-0.51;100.00
9905;BME280;4991;43.566;27.820;2023-02-14T03:34:22;99981.03;;;-0.50;100.00
9905;BME280;4991;43.566;27.820;2023-02-14T03:37:19;99980.59;;;-0.54;100.00
9905;BME280;4991;43.566;27.820;2023-02-14T03:40:02;99986.78;;;-0.53;100.00
9905;BME280;4991;43.566;27.820;2023-02-14T03:42:34;99976.09;;;-0.60;100.00
9905;BME280;4991;43.566;27.820;2023-02-14T03:45:03;99980.81;;;-0.55;100.00
9905;BME280;4991;43.566;27.820;2023-02-14T03:47:32;99976.91;;;-0.53;100.00
9905;BME280;4991;43.566;27.820;2023-02-14T03:50:08;99977.50;;;-0.57;100.00
9905;BME280;4991;43.566;27.820;2023-02-14T03:52:35;99980.41;;;-0.52;100.00
9905;BME280;4991;43.566;27.820;2023-02-14T03:55:04;99977.09;;;-0.48;100.00
9905;BME280;4991;43.566;27.820;2023-02-14T04:00:01;99992.53;;;-0.50;100.00
9905;BME280;4991;43.566;27.820;2023-02-14T04:02:47;99998.09;;;-0.51;100.00
9905;BME280;4991;43.566;27.820;2023-02-14T04:05:33;99994.63;;;-0.52;100.00
9905;BME280;4991;43.566;27.820;2023-02-14T04:08:00;100002.84;;;-0.47;100.00
9905;BME280;4991;43.566;27.820;2023-02-14T04:10:25;100008.00;;;-0.52;100.00
9905;BME280;4991;43.566;27.820;2023-02-14T04:12:51;100010.88;;;-0.60;100.00
9905;BME280;4991;43.566;27.820;2023-02-14T04:15:17;100002.63;;;-0.58;100.00
9905;BME280;4991;43.566;27.820;2023-02-14T04:17:43;100003.00;;;-0.61;100.00
9905;BME280;4991;43.566;27.820;2023-02-14T04:20:47;100005.28;;;-0.65;100.00
9905;BME280;4991;43.566;27.820;2023-02-14T04:23:12;100006.72;;;-0.69;100.00
9905;BME280;4991;43.566;27.820;2023-02-14T04:25:38;100007.97;;;-0.65;100.00
9905;BME280;4991;43.566;27.820;2023-02-14T04:28:04;100013.69;;;-0.68;100.00
9905;BME280;4991;43.566;27.820;2023-02-14T04:30:30;100007.13;;;-0.72;100.00
9905;BME280;4991;43.566;27.820;2023-02-14T04:32:56;100006.91;;;-0.70;100.00
9905;BME280;4991;43.566;27.820;2023-02-14T04:35:21;100009.16;;;-0.80;100.00
9905;BME280;4991;43.566;27.820;2023-02-14T04:37:47;100004.00;;;-0.82;100.00
9905;BME280;4991;43.566;27.820;2023-02-14T04:40:12;100012.41;;;-0.91;100.00
9905;BME280;4991;43.566;27.820;2023-02-14T04:42:43;100014.91;;;-0.83;100.00
9905;BME280;4991;43.566;27.820;2023-02-14T04:45:08;99994.75;;;-0.79;100.00
9905;BME280;4991;43.566;27.820;2023-02-14T04:47:34;99996.81;;;-0.81;100.00
9905;BME280;4991;43.566;27.820;2023-02-14T04:49:59;100010.97;;;-0.87;100.00
9905;BME280;4991;43.566;27.820;2023-02-14T04:52:25;100002.31;;;-0.96;100.00
9905;BME280;4991;43.566;27.820;2023-02-14T04:54:51;100010.69;;;-1.05;100.00
9905;BME280;4991;43.566;27.820;2023-02-14T04:57:16;100003.09;;;-1.02;100.00
9905;BME280;4991;43.566;27.820;2023-02-14T04:59:42;100014.97;;;-1.17;100.00
9905;BME280;4991;43.566;27.820;2023-02-14T05:02:08;100024.00;;;-1.18;100.00
9905;BME280;4991;43.566;27.820;2023-02-14T05:04:34;100028.31;;;-1.17;100.00
9905;BME280;4991;43.566;27.820;2023-02-14T05:07:00;100024.69;;;-1.10;100.00
9905;BME280;4991;43.566;27.820;2023-02-14T05:09:25;100030.44;;;-1.06;100.00
9905;BME280;4991;43.566;27.820;2023-02-14T05:11:51;100030.03;;;-1.03;100.00
9905;BME280;4991;43.566;27.820;2023-02-14T05:14:17;100034.59;;;-0.97;100.00
9905;BME280;4991;43.566;27.820;2023-02-14T05:16:42;100034.38;;;-0.96;100.00
9905;BME280;4991;43.566;27.820;2023-02-14T05:19:08;100036.44;;;-0.98;100.00
9905;BME280;4991;43.566;27.820;2023-02-14T05:21:34;100046.38;;;-0.85;100.00
9905;BME280;4991;43.566;27.820;2023-02-14T05:24:00;100049.25;;;-0.80;100.00
9905;BME280;4991;43.566;27.820;2023-02-14T05:26:26;100050.72;;;-0.71;100.00
9905;BME280;4991;43.566;27.820;2023-02-14T05:28:51;100055.69;;;-0.68;100.00
9905;BME280;4991;43.566;27.820;2023-02-14T05:31:17;100050.69;;;-0.78;100.00
9905;BME280;4991;43.566;27.820;2023-02-14T05:33:42;100052.75;;;-0.86;100.00
9905;BME280;4991;43.566;27.820;2023-02-14T05:36:09;100055.41;;;-0.86;100.00
9905;BME280;4991;43.566;27.820;2023-02-14T05:38:34;100048.00;;;-0.84;100.00
9905;BME280;4991;43.566;27.820;2023-02-14T05:41:00;100049.91;;;-0.78;100.00
9905;BME280;4991;43.566;27.820;2023-02-14T05:43:26;100049.00;;;-0.92;100.00
9905;BME280;4991;43.566;27.820;2023-02-14T05:45:51;100045.28;;;-0.97;100.00
9905;BME280;4991;43.566;27.820;2023-02-14T05:48:18;100037.47;;;-0.92;100.00
9905;BME280;4991;43.566;27.820;2023-02-14T05:50:44;100034.81;;;-0.92;100.00
9905;BME280;4991;43.566;27.820;2023-02-14T05:53:11;100033.81;;;-0.91;100.00
9905;BME280;4991;43.566;27.820;2023-02-14T05:55:37;100032.13;;;-0.92;100.00
9905;BME280;4991;43.566;27.820;2023-02-14T05:58:03;100038.75;;;-0.88;100.00
9905;BME280;4991;43.566;27.820;2023-02-14T06:00:28;100033.41;;;-0.88;100.00
9905;BME280;4991;43.566;27.820;2023-02-14T06:02:55;100042.44;;;-0.89;100.00
9905;BME280;4991;43.566;27.820;2023-02-14T06:05:21;100037.94;;;-0.76;100.00
9905;BME280;4991;43.566;27.820;2023-02-14T06:07:50;100040.84;;;-0.77;100.00
9905;BME280;4991;43.566;27.820;2023-02-14T06:10:17;100034.47;;;-0.76;100.00
9905;BME280;4991;43.566;27.820;2023-02-14T06:12:44;100038.19;;;-0.71;100.00
9905;BME280;4991;43.566;27.820;2023-02-14T06:15:11;100036.56;;;-0.65;100.00
9905;BME280;4991;43.566;27.820;2023-02-14T06:17:37;100028.75;;;-0.67;100.00
9905;BME280;4991;43.566;27.820;2023-02-14T06:20:03;100021.56;;;-0.60;100.00
9905;BME280;4991;43.566;27.820;2023-02-14T06:22:29;100017.22;;;-0.61;100.00
9905;BME280;4991;43.566;27.820;2023-02-14T06:24:54;100019.28;;;-0.56;100.00
9905;BME280;4991;43.566;27.820;2023-02-14T06:27:20;100013.94;;;-0.50;100.00
9905;BME280;4991;43.566;27.820;2023-02-14T06:29:46;100028.75;;;-0.54;100.00
9905;BME280;4991;43.566;27.820;2023-02-14T06:32:11;100012.31;;;-0.51;100.00
9905;BME280;4991;43.566;27.820;2023-02-14T06:34:37;100019.72;;;-0.46;100.00
9905;BME280;4991;43.566;27.820;2023-02-14T06:37:05;100023.44;;;-0.41;100.00
9905;BME280;4991;43.566;27.820;2023-02-14T06:39:31;100016.06;;;-0.26;100.00
9905;BME280;4991;43.566;27.820;2023-02-14T06:41:57;100013.78;;;-0.22;100.00
9905;BME280;4991;43.566;27.820;2023-02-14T06:44:23;100010.69;;;-0.13;100.00
9905;BME280;4991;43.566;27.820;2023-02-14T06:46:49;100017.50;;;-0.04;100.00
9905;BME280;4991;43.566;27.820;2023-02-14T06:49:15;100017.09;;;0.06;100.00
9905;BME280;4991;43.566;27.820;2023-02-14T06:51:40;100013.78;;;0.17;100.00
9905;BME280;4991;43.566;27.820;2023-02-14T06:54:06;100018.13;;;0.18;100.00
9905;BME280;4991;43.566;27.820;2023-02-14T06:56:32;100019.16;;;0.11;100.00
9905;BME280;4991;43.566;27.820;2023-02-14T06:58:57;100031.31;;;0.07;100.00
9905;BME280;4991;43.566;27.820;2023-02-14T07:01:23;100039.34;;;0.13;100.00
9905;BME280;4991;43.566;27.820;2023-02-14T07:03:49;100034.19;;;0.18;100.00
9905;BME280;4991;43.566;27.820;2023-02-14T07:06:14;100027.38;;;0.29;100.00
9905;BME280;4991;43.566;27.820;2023-02-14T07:08:40;100024.91;;;0.27;100.00
9905;BME280;4991;43.566;27.820;2023-02-14T07:11:06;100020.38;;;0.34;100.00
9905;BME280;4991;43.566;27.820;2023-02-14T07:13:32;100020.75;;;0.44;100.00
9905;BME280;4991;43.566;27.820;2023-02-14T07:15:58;100027.53;;;0.53;100.00
9905;BME280;4991;43.566;27.820;2023-02-14T07:18:24;100026.09;;;0.57;100.00
9905;BME280;4991;43.566;27.820;2023-02-14T07:20:50;100018.03;;;0.64;100.00
9905;BME280;4991;43.566;27.820;2023-02-14T07:23:15;100022.97;;;0.67;100.00
9905;BME280;4991;43.566;27.820;2023-02-14T07:25:41;100023.34;;;0.77;100.00
9905;BME280;4991;43.566;27.820;2023-02-14T07:28:07;100017.53;;;0.86;100.00
9905;BME280;4991;43.566;27.820;2023-02-14T07:30:32;100011.78;;;0.89;100.00
9905;BME280;4991;43.566;27.820;2023-02-14T07:32:58;100016.50;;;0.94;100.00
9905;BME280;4991;43.566;27.820;2023-02-14T07:35:24;100004.09;;;0.93;100.00
9905;BME280;4991;43.566;27.820;2023-02-14T07:37:50;100001.44;;;0.93;100.00
9905;BME280;4991;43.566;27.820;2023-02-14T07:40:16;100009.47;;;0.99;100.00
9905;BME280;4991;43.566;27.820;2023-02-14T07:42:42;99999.94;;;1.03;100.00
9905;BME280;4991;43.566;27.820;2023-02-14T07:45:08;100001.19;;;1.07;100.00
9905;BME280;4991;43.566;27.820;2023-02-14T07:47:34;99992.44;;;1.18;100.00
9905;BME280;4991;43.566;27.820;2023-02-14T07:49:59;99998.84;;;1.24;100.00
9905;BME280;4991;43.566;27.820;2023-02-14T07:52:25;99988.28;;;1.29;100.00
9905;BME280;4991;43.566;27.820;2023-02-14T07:54:50;99985.50;;;1.42;100.00
9905;BME280;4991;43.566;27.820;2023-02-14T07:57:16;99978.22;;;1.56;100.00
9905;BME280;4991;43.566;27.820;2023-02-14T07:59:41;99981.47;;;1.58;100.00
9905;BME280;4991;43.566;27.820;2023-02-14T08:02:09;99969.00;;;1.70;100.00
9905;BME280;4991;43.566;27.820;2023-02-14T08:04:36;99974.81;;;1.67;100.00
9905;BME280;4991;43.566;27.820;2023-02-14T08:07:02;99978.00;;;1.82;100.00
9905;BME280;4991;43.566;27.820;2023-02-14T08:09:28;99974.75;;;1.98;100.00
9905;BME280;4991;43.566;27.820;2023-02-14T08:11:56;99979.38;;;1.91;100.00
9905;BME280;4991;43.566;27.820;2023-02-14T08:14:41;99982.53;;;2.06;100.00
9905;BME280;4991;43.566;27.820;2023-02-14T08:17:07;99979.44;;;2.09;100.00
9905;BME280;4991;43.566;27.820;2023-02-14T08:19:35;99975.31;;;2.06;100.00
9905;BME280;4991;43.566;27.820;2023-02-14T08:22:02;99971.56;;;2.07;100.00
9905;BME280;4991;43.566;27.820;2023-02-14T08:24:28;99971.97;;;2.11;100.00
9905;BME280;4991;43.566;27.820;2023-02-14T08:26:54;99974.38;;;2.19;100.00
9905;BME280;4991;43.566;27.820;2023-02-14T08:29:19;99975.81;;;2.21;100.00
9905;BME280;4991;43.566;27.820;2023-02-14T08:31:45;99971.84;;;2.24;100.00
9905;BME280;4991;43.566;27.820;2023-02-14T08:34:12;99974.34;;;2.43;100.00
9905;BME280;4991;43.566;27.820;2023-02-14T08:36:38;99967.69;;;2.46;100.00
9905;BME280;4991;43.566;27.820;2023-02-14T08:39:04;99974.81;;;2.58;100.00
9905;BME280;4991;43.566;27.820;2023-02-14T08:41:30;99966.81;;;2.70;100.00
9905;BME280;4991;43.566;27.820;2023-02-14T08:43:56;99972.19;;;2.70;100.00
9905;BME280;4991;43.566;27.820;2023-02-14T08:46:21;99966.22;;;2.68;100.00
9905;BME280;4991;43.566;27.820;2023-02-14T08:48:47;99974.97;;;2.63;100.00
9905;BME280;4991;43.566;27.820;2023-02-14T08:51:15;99968.75;;;2.63;100.00
9905;BME280;4991;43.566;27.820;2023-02-14T08:53:42;99966.97;;;2.75;100.00
9905;BME280;4991;43.566;27.820;2023-02-14T08:56:11;99961.72;;;2.80;100.00
9905;BME280;4991;43.566;27.820;2023-02-14T08:58:38;99956.69;;;2.84;100.00
9905;BME280;4991;43.566;27.820;2023-02-14T09:01:15;99953.28;;;2.95;100.00
9905;BME280;4991;43.566;27.820;2023-02-14T09:03:41;99956.91;;;3.00;100.00
9905;BME280;4991;43.566;27.820;2023-02-14T09:06:08;99951.91;;;3.04;100.00
9905;BME280;4991;43.566;27.820;2023-02-14T09:08:36;99957.00;;;3.12;100.00
9905;BME280;4991;43.566;27.820;2023-02-14T09:13:32;99946.06;;;3.36;100.00
9905;BME280;4991;43.566;27.820;2023-02-14T09:16:02;99944.09;;;3.43;100.00
9905;BME280;4991;43.566;27.820;2023-02-14T09:18:27;99944.94;;;3.55;100.00
9905;BME280;4991;43.566;27.820;2023-02-14T09:20:53;99952.78;;;3.57;100.00
9905;BME280;4991;43.566;27.820;2023-02-14T09:23:19;99948.50;;;3.67;100.00
9905;BME280;4991;43.566;27.820;2023-02-14T09:25:44;99933.53;;;3.83;100.00
9905;BME280;4991;43.566;27.820;2023-02-14T09:28:10;99940.47;;;4.14;100.00
9905;BME280;4991;43.566;27.820;2023-02-14T09:30:36;99922.16;;;4.39;100.00
9905;BME280;4991;43.566;27.820;2023-02-14T09:33:01;99935.25;;;4.70;100.00
9905;BME280;4991;43.566;27.820;2023-02-14T09:35:30;99920.06;;;4.92;100.00
9905;BME280;4991;43.566;27.820;2023-02-14T09:37:56;99927.69;;;6.17;100.00
9905;BME280;4991;43.566;27.820;2023-02-14T09:40:40;99922.78;;;8.02;100.00
9905;BME280;4991;43.566;27.820;2023-02-14T09:45:39;99930.63;;;9.69;100.00
9905;BME280;4991;43.566;27.820;2023-02-14T09:48:28;99929.84;;;10.23;100.00
9905;BME280;4991;43.566;27.820;2023-02-14T09:51:01;99922.81;;;11.06;100.00
9905;BME280;4991;43.566;27.820;2023-02-14T09:53:34;99922.19;;;11.19;100.00
9905;BME280;4991;43.566;27.820;2023-02-14T09:56:11;99916.34;;;11.85;100.00
9905;BME280;4991;43.566;27.820;2023-02-14T10:04:33;99910.81;;;11.07;100.00
9905;BME280;4991;43.566;27.820;2023-02-14T10:10:39;99901.41;;;10.70;100.00
9905;BME280;4991;43.566;27.820;2023-02-14T10:13:30;99899.84;;;11.61;100.00
9905;BME280;4991;43.566;27.820;2023-02-14T10:16:12;99903.44;;;11.56;100.00
9905;BME280;4991;43.566;27.820;2023-02-14T10:26:47;99898.38;;;12.41;100.00
9905;BME280;4991;43.566;27.820;2023-02-14T10:29:16;99886.81;;;11.92;100.00
9905;BME280;4991;43.566;27.820;2023-02-14T10:34:34;99884.72;;;12.64;96.36
9905;BME280;4991;43.566;27.820;2023-02-14T10:40:04;99856.81;;;13.84;89.75
9905;BME280;4991;43.566;27.820;2023-02-14T10:42:56;99868.16;;;13.77;84.44
9905;BME280;4991;43.566;27.820;2023-02-14T10:48:25;99867.78;;;13.28;84.86
9905;BME280;4991;43.566;27.820;2023-02-14T10:54:27;99864.03;;;13.24;85.54
9905;BME280;4991;43.566;27.820;2023-02-14T10:57:02;99862.91;;;13.62;84.00
9905;BME280;4991;43.566;27.820;2023-02-14T10:59:52;99849.59;;;14.20;78.57
9905;BME280;4991;43.566;27.820;2023-02-14T11:02:23;99844.78;;;14.31;77.37
9905;BME280;4991;43.566;27.820;2023-02-14T11:04:50;99847.91;;;14.38;75.40
9905;BME280;4991;43.566;27.820;2023-02-14T11:07:19;99841.69;;;13.73;75.99
9905;BME280;4991;43.566;27.820;2023-02-14T11:09:46;99845.63;;;13.11;76.77
9905;BME280;4991;43.566;27.820;2023-02-14T11:12:30;99845.19;;;12.57;79.86
9905;BME280;4991;43.566;27.820;2023-02-14T11:15:28;99850.53;;;11.91;82.79
9905;BME280;4991;43.566;27.820;2023-02-14T11:20:41;99832.56;;;12.84;79.78
9905;BME280;4991;43.566;27.820;2023-02-14T11:23:22;99839.75;;;12.75;78.77
9905;BME280;4991;43.566;27.820;2023-02-14T11:25:50;99835.34;;;12.79;74.72
9905;BME280;4991;43.566;27.820;2023-02-14T11:28:20;99828.81;;;12.33;76.78
9905;BME280;4991;43.566;27.820;2023-02-14T11:30:48;99826.72;;;12.91;77.88
9905;BME280;4991;43.566;27.820;2023-02-14T11:33:36;99823.28;;;12.38;77.85
9905;BME280;4991;43.566;27.820;2023-02-14T11:36:04;99831.03;;;12.03;77.67
9905;BME280;4991;43.566;27.820;2023-02-14T11:38:35;99822.66;;;11.22;83.17
9905;BME280;4991;43.566;27.820;2023-02-14T11:41:04;99823.88;;;11.06;83.43
9905;BME280;4991;43.566;27.820;2023-02-14T11:43:34;99810.50;;;10.51;89.51
9905;BME280;4991;43.566;27.820;2023-02-14T11:46:09;99817.31;;;10.48;91.78
9905;BME280;4991;43.566;27.820;2023-02-14T11:48:37;99820.19;;;10.08;92.97
9905;BME280;4991;43.566;27.820;2023-02-14T11:51:12;99813.91;;;9.97;97.60
9905;BME280;4991;43.566;27.820;2023-02-14T11:53:55;99810.34;;;10.17;97.09
9905;BME280;4991;43.566;27.820;2023-02-14T11:56:52;99810.34;;;10.22;96.93
9905;BME280;4991;43.566;27.820;2023-02-14T11:59:40;99806.00;;;10.01;95.01
9905;BME280;4991;43.566;27.820;2023-02-14T12:04:56;99804.16;;;9.51;100.00
9905;BME280;4991;43.566;27.820;2023-02-14T12:07:30;99811.63;;;8.74;100.00
9905;BME280;4991;43.566;27.820;2023-02-14T12:16:08;99800.50;;;8.09;100.00
9905;BME280;4991;43.566;27.820;2023-02-14T12:18:40;99799.72;;;8.18;100.00
9905;BME280;4991;43.566;27.820;2023-02-14T12:21:38;99798.38;;;8.21;100.00
9905;BME280;4991;43.566;27.820;2023-02-14T12:24:16;99793.25;;;7.77;100.00
9905;BME280;4991;43.566;27.820;2023-02-14T12:26:56;99792.22;;;7.88;100.00
9905;BME280;4991;43.566;27.820;2023-02-14T12:32:06;99777.91;;;7.98;100.00
9905;BME280;4991;43.566;27.820;2023-02-14T12:34:36;99779.78;;;7.98;100.00
9905;BME280;4991;43.566;27.820;2023-02-14T12:48:50;99753.28;;;7.63;100.00
9905;BME280;4991;43.566;27.820;2023-02-14T12:54:35;99759.72;;;11.18;97.98
9905;BME280;4991;43.566;27.820;2023-02-14T13:13:35;99757.09;;;9.56;98.86
9905;BME280;4991;43.566;27.820;2023-02-14T13:21:05;99758.47;;;8.98;100.00
9905;BME280;4991;43.566;27.820;2023-02-14T13:23:41;99760.81;;;10.00;100.00
9905;BME280;4991;43.566;27.820;2023-02-14T13:26:15;99752.13;;;10.67;100.00
9905;BME280;4991;43.566;27.820;2023-02-14T13:28:48;99756.34;;;11.60;97.12
9905;BME280;4991;43.566;27.820;2023-02-14T13:31:16;99759.25;;;11.74;93.79
9905;BME280;4991;43.566;27.820;2023-02-14T13:33:49;99754.28;;;12.04;93.16
9905;BME280;4991;43.566;27.820;2023-02-14T13:36:17;99751.38;;;12.43;90.62
9905;BME280;4991;43.566;27.820;2023-02-14T13:38:51;99745.50;;;13.29;85.42
9905;BME280;4991;43.566;27.820;2023-02-14T13:41:19;99749.50;;;12.99;83.04
9905;BME280;4991;43.566;27.820;2023-02-14T13:43:49;99747.53;;;12.44;84.13
9905;BME280;4991;43.566;27.820;2023-02-14T13:47:02;99748.34;;;11.97;86.75
9905;BME280;4991;43.566;27.820;2023-02-14T13:49:31;99751.41;;;10.95;95.99
9905;BME280;4991;43.566;27.820;2023-02-14T13:52:00;99749.56;;;10.85;100.00
9905;BME280;4991;43.566;27.820;2023-02-14T13:56:54;99725.59;;;11.21;100.00
9905;BME280;4991;43.566;27.820;2023-02-14T13:59:32;99733.13;;;11.62;96.46
9905;BME280;4991;43.566;27.820;2023-02-14T14:04:52;99726.88;;;11.67;95.19
9905;BME280;4991;43.566;27.820;2023-02-14T14:07:35;99723.03;;;11.63;96.56
9905;BME280;4991;43.566;27.820;2023-02-14T14:10:02;99722.78;;;11.64;98.63
9905;BME280;4991;43.566;27.820;2023-02-14T14:17:36;99727.97;;;11.61;99.75
9905;BME280;4991;43.566;27.820;2023-02-14T14:22:56;99710.69;;;10.26;100.00
9905;BME280;4991;43.566;27.820;2023-02-14T14:25:38;99713.75;;;10.14;100.00
9905;BME280;4991;43.566;27.820;2023-02-14T14:28:31;99715.03;;;10.27;100.00
9905;BME280;4991;43.566;27.820;2023-02-14T14:30:57;99717.56;;;10.62;100.00
9905;BME280;4991;43.566;27.820;2023-02-14T14:33:26;99706.84;;;10.81;100.00
9905;BME280;4991;43.566;27.820;2023-02-14T14:36:04;99721.06;;;10.73;100.00
9905;BME280;4991;43.566;27.820;2023-02-14T14:38:31;99721.47;;;10.51;100.00
9905;BME280;4991;43.566;27.820;2023-02-14T14:40:59;99714.25;;;10.16;100.00
9905;BME280;4991;43.566;27.820;2023-02-14T14:43:43;99707.28;;;9.75;100.00
9905;BME280;4991;43.566;27.820;2023-02-14T14:46:13;99697.03;;;9.47;100.00
9905;BME280;4991;43.566;27.820;2023-02-14T14:48:43;99693.00;;;9.20;100.00
9905;BME280;4991;43.566;27.820;2023-02-14T14:51:36;99701.16;;;9.14;100.00
9905;BME280;4991;43.566;27.820;2023-02-14T14:54:05;99703.56;;;8.86;100.00
9905;BME280;4991;43.566;27.820;2023-02-14T14:56:36;99705.38;;;8.35;100.00
9905;BME280;4991;43.566;27.820;2023-02-14T14:59:25;99709.81;;;7.95;100.00
9905;BME280;4991;43.566;27.820;2023-02-14T15:01:52;99704.97;;;7.55;100.00
9905;BME280;4991;43.566;27.820;2023-02-14T15:04:31;99715.53;;;7.15;100.00
9905;BME280;4991;43.566;27.820;2023-02-14T15:07:17;99716.56;;;6.77;100.00
9905;BME280;4991;43.566;27.820;2023-02-14T15:09:43;99719.63;;;6.59;100.00
9905;BME280;4991;43.566;27.820;2023-02-14T15:12:09;99723.47;;;6.36;100.00
9905;BME280;4991;43.566;27.820;2023-02-14T15:14:54;99727.81;;;6.37;100.00
9905;BME280;4991;43.566;27.820;2023-02-14T15:17:24;99727.44;;;6.29;100.00
9905;BME280;4991;43.566;27.820;2023-02-14T15:19:57;99719.31;;;6.07;100.00
9905;BME280;4991;43.566;27.820;2023-02-14T15:22:41;99717.56;;;5.96;100.00
9905;BME280;4991;43.566;27.820;2023-02-14T15:25:12;99710.31;;;5.80;100.00
9905;BME280;4991;43.566;27.820;2023-02-14T15:27:41;99710.97;;;5.71;100.00
9905;BME280;4991;43.566;27.820;2023-02-14T15:32:48;99714.56;;;5.38;100.00
9905;BME280;4991;43.566;27.820;2023-02-14T15:35:16;99719.25;;;5.26;100.00
9905;BME280;4991;43.566;27.820;2023-02-14T15:37:44;99726.78;;;5.24;100.00
9905;BME280;4991;43.566;27.820;2023-02-14T15:40:20;99730.31;;;5.08;100.00
9905;BME280;4991;43.566;27.820;2023-02-14T15:42:47;99735.13;;;4.89;100.00
9905;BME280;4991;43.566;27.820;2023-02-14T15:47:55;99741.66;;;4.77;100.00
9905;BME280;4991;43.566;27.820;2023-02-14T15:50:26;99742.75;;;4.64;100.00
9905;BME280;4991;43.566;27.820;2023-02-14T15:52:54;99743.00;;;4.63;100.00